Current Conditions
Light Rain
Showers



Pressure
1013.55 (hPa) - 29.93 (inHG)
Visibility

9.0 (mimiles) - 14.5 (km)
   Temperature
61  °F
16°C
54  °F
Dewpoint
77  %
 Humidity
   Wind Speed
12  mph
10  kts
19  km/h
5.4  m/s
   Wind Direction
 260°
Due West
   Airport Data
KDTW
Location Detroit Metropolitan Wayne County Airport 20 mi (32.18 km)
Metar :KDTW 282253Z 26010KT 9SM -RA FEW055 BKN090 OVC120 16/12 A2993 RMK AO2 LTG DSNT E RAE22B42 TSE01 SLP136 TS MOV SE P0000 T01610117
Tue 28th May 18:53 pm
   Raw Metar Info
Raw METAR is the most common format in the world for the transmission of observational weather data. It is highly standardized through the International Civil Aviation Organization (ICAO), which allows it to be understood throughout most of the world.
   API Info
Data Provided by
https://www.checkwx.com/weather/KDTW
   © Info
CSS/SVG/PHP scripts were developed by weather34.com for use in the weather34 template © 2015-2024

Guide Info provided by Metar-Wikipedia